| time (UTC) | temp C | wind direction | speed KPH | gust KPH | rain 1hr cm | rain 24hr cm | rain mn cm | humidity % | barometer mb |
| 20260906072608 | 26 | 25 | 9.7 | 17.7 | 0.00 | 0.00 | 0.00 | 53 | 1015.8 |
| 20260906072136 | 26 | 357 | 8.0 | 16.1 | 0.00 | 0.00 | 0.00 | 53 | 1015.8 |
| 20260906071122 | 26 | 1 | 8.0 | 17.7 | 0.00 | 0.00 | 0.00 | 55 | 1015.7 |
| 20260906065954 | 26 | 337 | 6.4 | 16.1 | 0.00 | 0.00 | 0.00 | 57 | 1015.7 |
| 20260906065626 | 26 | 354 | 6.4 | 17.7 | 0.00 | 0.00 | 0.00 | 56 | 1015.6 |
| 20260906064520 | 26 | 7 | 6.4 | 17.7 | 0.00 | 0.00 | 0.00 | 56 | 1015.6 |
| 20260906063101 | 26 | 336 | 4.8 | 12.9 | 0.00 | 0.00 | 0.00 | 60 | 1015.5 |
| 20260906062241 | 26 | 35 | 6.4 | 16.1 | 0.00 | 0.00 | 0.00 | 56 | 1015.7 |
| 20260906061636 | 25 | 16 | 4.8 | 11.3 | 0.00 | 0.00 | 0.00 | 63 | 1015.4 |
| 20260906060445 | 25 | 28 | 6.4 | 16.1 | 0.00 | 0.00 | 0.00 | 64 | 1015.3 |
| 20260906060116 | 24 | 323 | 6.4 | 16.1 | 0.00 | 0.00 | 0.00 | 65 | 1015.3 |
| 20260906054946 | 24 | 343 | 3.2 | 17.7 | 0.00 | 0.00 | 0.00 | 68 | 1015.2 |
| 20260906053505 | 23 | 333 | 3.2 | 9.7 | 0.00 | 0.00 | 0.00 | 71 | 1015.0 |
| 20260906052016 | 22 | 352 | 0.0 | 3.2 | 0.00 | 0.00 | 0.00 | 72 | 1014.8 |
| 20260906050451 | 22 | 299 | 0.0 | 1.6 | 0.00 | 0.00 | 0.00 | 71 | 1014.6 |
| 20260906045436 | 22 | 319 | 3.2 | 9.7 | 0.00 | 0.00 | 0.00 | 71 | 1014.5 |
| 20260906045155 | 22 | 311 | 3.2 | 11.3 | 0.00 | 0.00 | 0.00 | 70 | 1014.5 |
| 20260906044028 | 22 | 308 | 6.4 | 11.3 | 0.00 | 0.00 | 0.00 | 70 | 1014.3 |
| 20260906042731 | 22 | 326 | 8.0 | 16.1 | 0.00 | 0.00 | 0.00 | 71 | 1014.3 |
| 20260906042312 | 22 | 337 | 6.4 | 14.5 | 0.00 | 0.00 | 0.00 | 71 | 1014.3 |
| 20260906041501 | 22 | 304 | 4.8 | 14.5 | 0.00 | 0.00 | 0.00 | 71 | 1014.3 |
| 20260906040937 | 22 | 305 | 3.2 | 9.7 | 0.00 | 0.00 | 0.00 | 70 | 1014.3 |
| 20260906035710 | 22 | 308 | 3.2 | 9.7 | 0.00 | 0.00 | 0.00 | 68 | 1014.3 |
| 20260906034245 | 21 | 329 | 1.6 | 6.4 | 0.00 | 0.00 | 0.00 | 66 | 1014.1 |
| 20260906032842 | 21 | 319 | 4.8 | 12.9 | 0.00 | 0.00 | 0.00 | 69 | 1014.0 |
| 20260906032419 | 20 | 340 | 4.8 | 12.9 | 0.00 | 0.00 | 0.00 | 71 | 1014.0 |
| 20260906031907 | 20 | 323 | 3.2 | 9.7 | 0.00 | 0.00 | 0.00 | 73 | 1014.0 |
| 20260906031335 | 20 | 329 | 1.6 | 8.0 | 0.00 | 0.00 | 0.00 | 75 | 1013.8 |
| 20260906030810 | 20 | 0 | 0.0 | 3.2 | 0.00 | 0.00 | 0.00 | 75 | 1013.8 |
| 20260906025909 | 20 | 323 | 0.0 | 3.2 | 0.00 | 0.00 | 0.00 | 77 | 1013.8 |
| 20260906025438 | 20 | 320 | 0.0 | 3.2 | 0.00 | 0.00 | 0.00 | 79 | 1013.8 |
| 20260906024831 | 20 | 318 | 0.0 | 3.2 | 0.00 | 0.00 | 0.00 | 81 | 1013.8 |
| 20260906024503 | 20 | 329 | 0.0 | 3.2 | 0.00 | 0.00 | 0.00 | 82 | 1013.8 |
| 20260906024026 | 20 | 354 | 1.6 | 8.0 | 0.00 | 0.00 | 0.00 | 84 | 1013.8 |
| 20260906023323 | 20 | 343 | 1.6 | 8.0 | 0.00 | 0.00 | 0.00 | 85 | 1013.8 |
| 20260906021708 | 20 | 10 | 3.2 | 9.7 | 0.00 | 0.00 | 0.00 | 88 | 1013.8 |
| 20260906020451 | 20 | 0 | 1.6 | 9.7 | 0.00 | 0.00 | 0.00 | 90 | 1013.8 |
| 20260906015240 | 21 | 17 | 1.6 | 9.7 | 0.00 | 0.00 | 0.00 | 91 | 1013.6 |
| 20260906014916 | 21 | 340 | 0.0 | 1.6 | 0.00 | 0.00 | 0.00 | 93 | 1013.6 |
| 20260906013714 | 21 | 336 | 0.0 | 0.0 | 0.00 | 0.00 | 0.00 | 93 | 1013.6 |
| 20260906013109 | 21 | 333 | 0.0 | 0.0 | 0.00 | 0.00 | 0.00 | 93 | 1013.6 |
| 20260906005649 | 22 | 333 | 1.6 | 0.0 | 0.00 | 0.00 | 0.00 | 94 | 1013.6 |
| 20260906003932 | 24 | 320 | 0.0 | 3.2 | 0.00 | 0.00 | 0.00 | 92 | 1013.7 |
| 20260906003525 | 24 | 295 | 0.0 | 3.2 | 0.00 | 0.00 | 0.00 | 91 | 1013.7 |
| 20260906002735 | 24 | 299 | 0.0 | 3.2 | 0.00 | 0.00 | 0.00 | 91 | 1013.7 |
| 20260906002440 | 24 | 285 | 0.0 | 0.0 | 0.00 | 0.00 | 0.00 | 91 | 1013.8 |
| 20260906001242 | 24 | 285 | 0.0 | 0.0 | 0.00 | 0.00 | 0.00 | 90 | 1013.8 |
| 20260906000925 | 24 | 285 | 0.0 | 0.0 | 0.00 | 0.00 | 0.00 | 89 | 1013.8 |
| 20260906000404 | 24 | 285 | 0.0 | 0.0 | 0.00 | 0.00 | 0.00 | 88 | 1013.8 |
| 20260905235308 | 24 | 285 | 0.0 | 0.0 | 0.00 | 0.00 | 0.00 | 87 | 1013.9 |
| 20260905234606 | 24 | 285 | 0.0 | 0.0 | 0.00 | 0.00 | 0.00 | 86 | 1013.9 |
| 20260905234307 | 24 | 285 | 0.0 | 3.2 | 0.00 | 0.00 | 0.00 | 85 | 1013.9 |
| 20260905233114 | 24 | 285 | 0.0 | 0.0 | 0.00 | 0.00 | 0.00 | 83 | 1013.9 |
| 20260905231840 | 24 | 285 | 0.0 | 0.0 | 0.00 | 0.00 | 0.00 | 81 | 1013.7 |
| 20260905231549 | 25 | 285 | 0.0 | 0.0 | 0.00 | 0.00 | 0.00 | 80 | 1013.7 |
| 20260905230343 | 25 | 285 | 0.0 | 0.0 | 0.00 | 0.00 | 0.00 | 78 | 1013.8 |
| 20260905230049 | 25 | 285 | 0.0 | 0.0 | 0.00 | 0.00 | 0.00 | 78 | 1013.8 |
| 20260905225536 | 25 | 285 | 0.0 | 0.0 | 0.00 | 0.00 | 0.00 | 76 | 1013.8 |
| 20260905224843 | 25 | 282 | 0.0 | 0.0 | 0.00 | 0.00 | 0.00 | 75 | 1013.9 |
| 20260905223421 | 25 | 241 | 0.0 | 0.0 | 0.00 | 0.00 | 0.00 | 71 | 1013.9 |
| 20260905223038 | 25 | 241 | 0.0 | 0.0 | 0.00 | 0.00 | 0.00 | 70 | 1013.9 |
| 20260905222242 | 25 | 241 | 0.0 | 0.0 | 0.00 | 0.00 | 0.00 | 69 | 1013.9 |
| 20260905221954 | 25 | 241 | 0.0 | 0.0 | 0.00 | 0.00 | 0.00 | 68 | 1014.0 |
| 20260905215242 | 25 | 237 | 0.0 | 0.0 | 0.00 | 0.00 | 0.00 | 63 | 1014.0 |
| 20260905214415 | 25 | 237 | 0.0 | 0.0 | 0.00 | 0.00 | 0.00 | 63 | 1014.0 |
| 20260905213817 | 25 | 237 | 0.0 | 0.0 | 0.00 | 0.00 | 0.00 | 62 | 1013.8 |
| 20260905212327 | 25 | 237 | 0.0 | 0.0 | 0.00 | 0.00 | 0.00 | 56 | 1013.8 |
| 20260905211108 | 25 | 237 | 0.0 | 0.0 | 0.00 | 0.00 | 0.00 | 50 | 1013.8 |
| 20260905210741 | 25 | 237 | 0.0 | 0.0 | 0.00 | 0.00 | 0.00 | 48 | 1013.9 |
| 20260905205629 | 25 | 237 | 0.0 | 0.0 | 0.00 | 0.00 | 0.00 | 46 | 1013.9 |
| 20260905203032 | 25 | 241 | 0.0 | 1.6 | 0.00 | 0.00 | 0.00 | 44 | 1013.9 |
| 20260905201409 | 26 | 250 | 0.0 | 3.2 | 0.00 | 0.00 | 0.00 | 43 | 1013.9 |
| 20260905200123 | 26 | 250 | 0.0 | 3.2 | 0.00 | 0.00 | 0.00 | 43 | 1013.9 |
| 20260905195012 | 26 | 244 | 0.0 | 4.8 | 0.00 | 0.00 | 0.00 | 43 | 1013.9 |
| 20260905194618 | 26 | 234 | 0.0 | 4.8 | 0.00 | 0.00 | 0.00 | 44 | 1013.7 |
| 20260905194126 | 26 | 220 | 0.0 | 1.6 | 0.00 | 0.00 | 0.00 | 43 | 1013.7 |
| 20260905193412 | 26 | 220 | 0.0 | 4.8 | 0.00 | 0.00 | 0.00 | 43 | 1013.7 |
| 20260905193116 | 26 | 219 | 0.0 | 4.8 | 0.00 | 0.00 | 0.00 | 43 | 1013.7 |
| 20260905192019 | 26 | 202 | 0.0 | 1.6 | 0.00 | 0.00 | 0.00 | 43 | 1013.4 |
| 20260905191719 | 26 | 226 | 0.0 | 3.2 | 0.00 | 0.00 | 0.00 | 43 | 1013.4 |
| 20260905191229 | 26 | 193 | 0.0 | 3.2 | 0.00 | 0.00 | 0.00 | 43 | 1013.4 |
| 20260905190543 | 26 | 224 | 0.0 | 3.2 | 0.00 | 0.00 | 0.00 | 43 | 1013.4 |
| 20260905190237 | 27 | 220 | 0.0 | 1.6 | 0.00 | 0.00 | 0.00 | 42 | 1013.4 |
| 20260905185645 | 27 | 241 | 0.0 | 1.6 | 0.00 | 0.00 | 0.00 | 42 | 1013.4 |
| 20260905183843 | 27 | 181 | 0.0 | 4.8 | 0.00 | 0.00 | 0.00 | 41 | 1013.3 |
| 20260905182244 | 27 | 240 | 0.0 | 4.8 | 0.00 | 0.00 | 0.00 | 42 | 1013.3 |
| 20260905181814 | 27 | 200 | 0.0 | 4.8 | 0.00 | 0.00 | 0.00 | 42 | 1013.1 |
| 20260905181047 | 27 | 222 | 0.0 | 4.8 | 0.00 | 0.00 | 0.00 | 42 | 1013.1 |
| 20260905180756 | 27 | 220 | 0.0 | 3.2 | 0.00 | 0.00 | 0.00 | 42 | 1013.2 |
| 20260905175612 | 28 | 230 | 0.0 | 3.2 | 0.00 | 0.00 | 0.00 | 41 | 1013.1 |
| 20260905175315 | 28 | 263 | 0.0 | 3.2 | 0.00 | 0.00 | 0.00 | 41 | 1013.1 |
| 20260905174715 | 28 | 205 | 0.0 | 3.2 | 0.00 | 0.00 | 0.00 | 41 | 1013.1 |
| 20260905174045 | 28 | 151 | 0.0 | 3.2 | 0.00 | 0.00 | 0.00 | 41 | 1013.1 |
| 20260905173144 | 29 | 202 | 0.0 | 8.0 | 0.00 | 0.00 | 0.00 | 40 | 1013.0 |
| 20260905172610 | 29 | 191 | 0.0 | 1.6 | 0.00 | 0.00 | 0.00 | 40 | 1013.0 |
| 20260905171646 | 30 | 193 | 0.0 | 11.3 | 0.00 | 0.00 | 0.00 | 40 | 1013.0 |
| 20260905165922 | 30 | 182 | 0.0 | 4.8 | 0.00 | 0.00 | 0.00 | 40 | 1013.1 |
| 20260905164404 | 31 | 234 | 1.6 | 9.7 | 0.00 | 0.00 | 0.00 | 40 | 1013.1 |
| 20260905163128 | 31 | 233 | 0.0 | 8.0 | 0.00 | 0.00 | 0.00 | 37 | 1013.0 |
| 20260905162747 | 31 | 229 | 1.6 | 8.0 | 0.00 | 0.00 | 0.00 | 37 | 1013.0 |
| 20260905161933 | 31 | 184 | 1.6 | 9.7 | 0.00 | 0.00 | 0.00 | 36 | 1013.0 |
| 20260905161011 | 31 | 134 | 0.0 | 9.7 | 0.00 | 0.00 | 0.00 | 36 | 1013.1 |
| 20260905154831 | 31 | 186 | 0.0 | 9.7 | 0.00 | 0.00 | 0.00 | 39 | 1013.1 |
| 20260905153641 | 31 | 138 | 1.6 | 9.7 | 0.00 | 0.00 | 0.00 | 41 | 1013.1 |
| 20260905153316 | 31 | 157 | 1.6 | 9.7 | 0.00 | 0.00 | 0.00 | 41 | 1013.1 |
| 20260905151703 | 31 | 136 | 1.6 | 12.9 | 0.00 | 0.00 | 0.00 | 47 | 1013.3 |
| 20260905151021 | 30 | 133 | 3.2 | 9.7 | 0.00 | 0.00 | 0.00 | 47 | 1013.5 |
| 20260905150535 | 30 | 106 | 3.2 | 9.7 | 0.00 | 0.00 | 0.00 | 46 | 1013.5 |
| 20260905144508 | 30 | 152 | 4.8 | 9.7 | 0.00 | 0.00 | 0.00 | 49 | 1013.5 |
| 20260905143906 | 30 | 112 | 6.4 | 11.3 | 0.00 | 0.00 | 0.00 | 49 | 1013.7 |
| 20260905142407 | 29 | 107 | 6.4 | 9.7 | 0.00 | 0.00 | 0.00 | 62 | 1013.8 |
| 20260905140925 | 30 | 143 | 1.6 | 8.0 | 0.00 | 0.00 | 0.00 | 54 | 1014.0 |
| 20260905135435 | 30 | 147 | 1.6 | 4.8 | 0.00 | 0.00 | 0.00 | 54 | 1014.2 |
| 20260905134347 | 30 | 124 | 3.2 | 8.0 | 0.00 | 0.00 | 0.00 | 53 | 1014.2 |
| 20260905133951 | 30 | 137 | 1.6 | 8.0 | 0.00 | 0.00 | 0.00 | 53 | 1014.3 |
| 20260905133443 | 31 | 164 | 0.0 | 4.8 | 0.00 | 0.00 | 0.00 | 54 | 1014.3 |
| 20260905131429 | 30 | 181 | 0.0 | 6.4 | 0.00 | 0.00 | 0.00 | 55 | 1014.4 |
| 20260905131025 | 30 | 140 | 1.6 | 6.4 | 0.00 | 0.00 | 0.00 | 56 | 1014.7 |
| 20260905130541 | 30 | 138 | 1.6 | 8.0 | 0.00 | 0.00 | 0.00 | 54 | 1014.7 |
| 20260905130007 | 29 | 124 | 3.2 | 8.0 | 0.00 | 0.00 | 0.00 | 54 | 1014.7 |
| 20260905124518 | 30 | 148 | 3.2 | 8.0 | 0.00 | 0.00 | 0.00 | 55 | 1014.9 |
| 20260905124000 | 30 | 136 | 3.2 | 8.0 | 0.00 | 0.00 | 0.00 | 56 | 1015.0 |
| 20260905123333 | 30 | 171 | 1.6 | 8.0 | 0.00 | 0.00 | 0.00 | 55 | 1015.0 |
| 20260905121850 | 29 | 73 | 1.6 | 4.8 | 0.00 | 0.00 | 0.00 | 58 | 1015.1 |
| 20260905121414 | 29 | 123 | 3.2 | 8.0 | 0.00 | 0.00 | 0.00 | 59 | 1015.1 |
| 20260905120356 | 29 | 114 | 3.2 | 11.3 | 0.00 | 0.00 | 0.00 | 58 | 1015.2 |
| 20260905114941 | 29 | 99 | 3.2 | 8.0 | 0.00 | 0.00 | 0.00 | 58 | 1015.3 |
| 20260905113821 | 29 | 119 | 1.6 | 6.4 | 0.00 | 0.00 | 0.00 | 59 | 1015.4 |
| 20260905112346 | 29 | 110 | 1.6 | 4.8 | 0.00 | 0.00 | 0.00 | 61 | 1015.5 |
| 20260905111507 | 29 | 75 | 0.0 | 4.8 | 0.00 | 0.00 | 0.00 | 59 | 1015.5 |
| 20260905110921 | 28 | 124 | 0.0 | 3.2 | 0.00 | 0.00 | 0.00 | 59 | 1015.7 |
| 20260905110116 | 29 | 85 | 0.0 | 8.0 | 0.00 | 0.00 | 0.00 | 58 | 1015.7 |
| 20260905104620 | 29 | 92 | 0.0 | 4.8 | 0.00 | 0.00 | 0.00 | 61 | 1015.9 |
| 20260905103711 | 28 | 54 | 0.0 | 4.8 | 0.00 | 0.00 | 0.00 | 60 | 1016.1 |
| 20260905102641 | 29 | 59 | 0.0 | 1.6 | 0.00 | 0.00 | 0.00 | 58 | 1016.1 |
| 20260905102326 | 28 | 79 | 0.0 | 3.2 | 0.00 | 0.00 | 0.00 | 59 | 1016.1 |
| 20260905101242 | 28 | 102 | 1.6 | 8.0 | 0.00 | 0.00 | 0.00 | 60 | 1016.3 |
| 20260905100219 | 28 | 71 | 3.2 | 8.0 | 0.00 | 0.00 | 0.00 | 60 | 1016.2 |
| 20260905095736 | 28 | 88 | 1.6 | 8.0 | 0.00 | 0.00 | 0.00 | 59 | 1016.4 |
| 20260905094535 | 28 | 56 | 1.6 | 8.0 | 0.00 | 0.00 | 0.00 | 59 | 1016.4 |
| 20260905094213 | 28 | 28 | 1.6 | 8.0 | 0.00 | 0.00 | 0.00 | 59 | 1016.4 |
| 20260905092929 | 27 | 28 | 3.2 | 9.7 | 0.00 | 0.00 | 0.00 | 58 | 1016.4 |
| 20260905091755 | 28 | 34 | 1.6 | 9.7 | 0.00 | 0.00 | 0.00 | 55 | 1016.5 |
| 20260905090909 | 27 | 41 | 4.8 | 12.9 | 0.00 | 0.00 | 0.00 | 56 | 1016.4 |
| 20260905085804 | 27 | 0 | 6.4 | 12.9 | 0.00 | 0.00 | 0.00 | 56 | 1016.4 |
| 20260905084730 | 27 | 23 | 4.8 | 12.9 | 0.00 | 0.00 | 0.00 | 52 | 1016.4 |
| 20260905083638 | 27 | 16 | 8.0 | 12.9 | 0.00 | 0.00 | 0.00 | 53 | 1016.4 |
| 20260905082135 | 26 | 326 | 8.0 | 12.9 | 0.00 | 0.00 | 0.00 | 52 | 1016.4 |
| 20260905081643 | 26 | 21 | 8.0 | 12.9 | 0.00 | 0.00 | 0.00 | 52 | 1016.4 |
| 20260905080557 | 26 | 0 | 6.4 | 12.9 | 0.00 | 0.00 | 0.00 | 53 | 1016.4 |
| 20260905080123 | 26 | 38 | 8.0 | 12.9 | 0.00 | 0.00 | 0.00 | 54 | 1016.4 |
| 20260905075118 | 26 | 40 | 9.7 | 17.7 | 0.00 | 0.00 | 0.00 | 56 | 1016.3 |
| 20260905074624 | 26 | 350 | 9.7 | 17.7 | 0.00 | 0.00 | 0.00 | 56 | 1016.3 |